LIRNLFKS

Guest
Details From LIRN - Naples Capodichino
To LFKS - Solenzara
Flight Number -
Tags generated
Created
Modified
Stats Distance 234 nm / 433 km
Max Altitude 28,000 ft / 8,534 m
Waypoints 6
Social Downloads 1
Likes 0
Share VATSIM

Download

Looking for another format? Having issues loading an existing format? Contact us
Advertisement - Login to hide

Notes

Basic altitude profile: - Ascent Rate: 800ft/min - Ascent Speed: 250kts - Cruise Altitude: 13000ft - Cruise Speed: 420kts - Descent Rate: 800ft/min - Descent Speed: 250kts Options: - Use NATs: no - Use PACOTS: no - Use low airways: yes - Use high airways: no

Route

LIRN ELVIN A1 RAVAL LFKS

ID Type Via Altitude Latitude Longitude Leg Dist Tot Dist Heading (true) Name
O LIRN APT - 0 ft / 0 m 40.88603˚ 14.29078˚ - 0 nm - Naples Capodichino
ELVIN FIX - 28,000 ft / 8,534 m 41.49389˚ 12.16139˚ 102 nm 102 nm 291° / 290° -
TORLI FIX A1 (AWY-LO) 18,500 ft / 5,639 m 41.59667˚ 12.01833˚ 8 nm 111 nm 314° / 314° -
LUNAK FIX A1 (AWY-LO) 18,500 ft / 5,639 m 41.70333˚ 11.87056˚ 9 nm 121 nm 314° / 314° -
RAVAL FIX A1 (AWY-LO) 18,500 ft / 5,639 m 41.80472˚ 11.72722˚ 8 nm 129 nm 314° / 313° -
O LFKS APT - 0 ft / 0 m 41.92462˚ 9.40532˚ 104 nm 234 nm 275° / 273° Solenzara

Altitude Profile

Advertisement - Login to hide

Weather


0- 5 10 15 20 25 30 35+ Temperature / ° C

Clouds and Precipitation
Forecast for 2017-12-11 06:00 UTC. Updated an hour ago

Ground ~20,000 ft ~40,000 ft Winds

LIRN

Details ICAO LIRN (NAP)
Name Naples Capodichino
Region Italy
Timezone Europe/Rome (UTC+1.0)
Stats Elevation 294 ft / 90 m (AMSL)
Location 40.886032° 14.290783°
Runways 1
Magnetic Variation 3.307° E

METAR

LIRN 110150Z 19014G25KT 9999 -DZ SCT020 BKN040 13/07 Q1014 NOSIG

Decode

TAF

TAF LIRN 102300Z 1100/1124 19016G26KT 9999 SCT030 TEMPO 1100/1106 RA

Decode

Departure Runways

ID Width Length Bearing (true) Bearing (mag) Surface Threshold Offset Overrun Length
06 148 ft / 45 m 8,612 ft / 2,625 m 58.03° 54.72° Asphalt 1,309 ft / 399 m 0 ft / 0 m
24 148 ft / 45 m 8,612 ft / 2,625 m 238.05° 234.74° Asphalt 624 ft / 190 m 0 ft / 0 m

LFKS

Details ICAO LFKS (SOZ)
Name Solenzara
Region France
Timezone Europe/Paris (UTC+1.0)
Stats Elevation 27 ft / 8 m (AMSL)
Location 41.924616° 9.405323°
Runways 1
Magnetic Variation 2.451° E

METAR

LFKS 110200Z AUTO 19013KT 170V230 9999 OVC064/// 16/11 Q1002

Decode

TAF

Not found

Destination Runways

ID Width Length Bearing (true) Bearing (mag) Surface Threshold Offset Overrun Length
18 148 ft / 45 m 8,582 ft / 2,616 m 179.77° 177.32° Concrete 0 ft / 0 m 686 ft / 209 m
36 148 ft / 45 m 8,582 ft / 2,616 m 359.77° 357.32° Concrete 0 ft / 0 m 935 ft / 285 m

Approach Navaids

Runway Type Ident Frequency Range Bearing (true) Bearing (mag) Slope Elevation
18 Localiser SZA 109.10 MHz 27 nm / 50 km 178.95° 176.50° - 27 ft / 8 m (AMSL)
18 Glidescope SZA 109.10 MHz 27 nm / 50 km 178.95° 176.50° 2.50° 27 ft / 8 m (AMSL)

Popular Alternatives